• Join FlightAware (Why Join?)
  • Login
  • US Flag 
08:54PM EDT


 

Airport Tracker/Info


-or-


 

Live Flight TrackerFlight Track Log ✈ AWE3287 ✈ 27-Jun-2014 ✈ KIND - KDCA

Flight Track Log - Related Links

Times and Time Zones

All times are in EDT time to prevent confusion due to time zone crossing. See the AWE3287 flight status page for this flight to view local times or setup timezone preferences in your user account.

Time Position Orientation Groundspeed Altitude Reporting Facility
EDT Latitude Longitude Course Direction KTS MPH feet Rate Location/Type
05:44PM 39.7000 -86.3000 191° South 135 155 1,500  Level Indianapolis TRACON
05:45PM 39.6333 -86.3167 191° South 238 274 4,400 2,040 Climbing Indianapolis TRACON
05:46PM 39.6500 -86.2500 72° East 286 329 6,700 2,580 Climbing Indianapolis TRACON
05:48PM 39.7169 -86.1508 49° Northeast 288 331 10,600 2,460 Climbing Indianapolis Center
05:49PM 39.7422 -86.0467 72° East 307 353 12,700 1,860 Climbing Indianapolis Center
05:50PM 39.7633 -85.9289 77° East 328 377 14,500 2,040 Climbing Indianapolis Center
05:51PM 39.7900 -85.7803 77° East 348 400 17,000 1,980 Climbing Indianapolis Center
05:52PM 39.8122 -85.6528 77° East 357 411 18,700 1,500 Climbing Indianapolis Center
05:53PM 39.8353 -85.5228 77° East 366 421 20,200 1,380 Climbing Indianapolis Center
05:54PM 39.8581 -85.3875 78° East 379 436 21,600 1,320 Climbing Indianapolis Center
05:55PM 39.8817 -85.2475 78° East 391 450 23,000 1,320 Climbing Indianapolis Center
05:56PM 39.8922 -85.0714 85° East 403 464 24,400 1,320 Climbing Indianapolis Center
05:57PM 39.9008 -84.9200 86° East 415 478 25,800 1,140 Climbing Indianapolis Center
05:58PM 39.9081 -84.7817 86° East 420 483 26,800 1,200 Climbing Indianapolis Center
05:59PM 39.9178 -84.5931 86° East 433 498 28,300 1,320 Climbing Indianapolis Center
06:00PM 39.9256 -84.4325 86° East 441 507 29,600 1,200 Climbing Indianapolis Center
06:01PM 39.9331 -84.2714 86° East 444 511 30,800 660 Climbing Indianapolis Center
06:02PM 39.9528 -84.1047 81° East 458 527 31,000 60 Climbing Indianapolis Center
06:03PM 39.9761 -83.9311 80° East 478 550 31,000  Level Indianapolis Center
06:04PM 40.0006 -83.7592 79° East 478 550 31,000  Level Indianapolis Center
06:05PM 40.0247 -83.5850 80° East 478 550 31,000  Level Indianapolis Center
06:07PM 40.0692 -83.2317 81° East 484 557 31,000  Level Cleveland Center
06:08PM 40.0700 -83.0553 90° East 487 560 31,000  Level Cleveland Center
06:09PM 40.0314 -82.8831 106° East 489 563 31,000  Level Cleveland Center
06:10PM 39.9933 -82.7117 106° East 489 563 31,000  Level Cleveland Center
06:11PM 39.9536 -82.5400 107° East 492 566 31,000  Level Cleveland Center
06:12PM 39.9144 -82.3686 107° East 492 566 31,000  Level Cleveland Center
06:13PM 39.8672 -82.1628 107° East 493 567 31,000  Level Cleveland Center
06:15PM 39.8264 -81.9908 107° East 495 570 31,000  Level Cleveland Center
06:16PM 39.7858 -81.8181 107° East 497 572 31,000  Level Cleveland Center
06:17PM 39.7411 -81.6342 107° East 496 571 31,000  Level Cleveland Center
06:18PM 39.7017 -81.4628 107° East 497 572 31,000  Level Cleveland Center
06:19PM 39.6600 -81.2914 107° East 499 574 31,000  Level Cleveland Center
06:20PM 39.6189 -81.1208 107° East 500 575 31,000  Level Cleveland Center
06:21PM 39.5769 -80.9503 108° East 500 575 31,000  Level Cleveland Center
06:22PM 39.5264 -80.7464 108° East 499 574 31,000  Level Cleveland Center
06:23PM 39.4831 -80.5767 108° East 500 575 31,000  Level Cleveland Center
06:24PM 39.4408 -80.4064 108° East 501 577 31,000  Level Cleveland Center
06:25PM 39.3975 -80.2347 108° East 502 578 31,000  Level Cleveland Center
06:26PM 39.3547 -80.0647 108° East 502 578 31,000  Level Cleveland Center
06:27PM 39.3039 -79.8617 108° East 501 577 31,000  Level Cleveland Center
06:28PM 39.2819 -79.6861 99° East 503 579 31,000 -720 Level Cleveland Center
06:29PM 39.2683 -79.5153 96° East 487 560 29,600 -1,560 Descending Cleveland Center
06:30PM 39.2553 -79.3497 96° East 472 543 27,800 -1,800 Descending Cleveland Center
06:31PM 39.2400 -79.1867 97° East 453 521 26,000 -1,860 Descending Cleveland Center
06:32PM 39.2253 -78.9989 96° East 443 510 24,000 -1,800 Descending Cleveland Center
06:33PM 39.2117 -78.8497 97° East 426 490 22,300 -1,620 Descending Cleveland Center
06:34PM 39.1981 -78.7042 97° East 414 476 20,700 -1,620 Descending Cleveland Center
06:35PM 39.1836 -78.5642 98° East 400 460 19,000 -1,500 Descending Cleveland Center
06:36PM 39.1703 -78.4250 97° East 393 452 17,600 -960 Descending Cleveland Center
06:37PM 39.1456 -78.2931 104° East 388 447 17,000 -960 Descending Cleveland Center
06:38PM 39.1072 -78.1436 108° East 374 430 15,600 -1,380 Descending Washington Center
06:39PM 39.0764 -78.0194 108° East 374 430 14,200 -1,260 Descending Washington Center
06:40PM 39.0494 -77.9117 108° East 363 418 13,100 -1,260 Descending Washington Center
06:41PM 39.0222 -77.8039 108° East 325 374 11,700 -1,380 Descending Washington Center
06:42PM 38.9931 -77.6908 108° East 302 348 10,400 -1,260 Descending Washington Center
06:43PM 38.9667 -77.6167 115° Southeast 298 343 9,700 -1,080 Descending Potomac TRACON
06:44PM 38.9333 -77.5333 117° Southeast 295 339 8,800 -960 Descending Potomac TRACON
06:45PM 38.9000 -77.4333 113° Southeast 284 327 7,900 -1,140 Descending Potomac TRACON
06:46PM 38.8667 -77.3500 117° Southeast 279 321 6,600 -960 Descending Potomac TRACON
06:47PM 38.8333 -77.2667 117° Southeast 273 314 6,000 -780 Descending Potomac TRACON
06:48PM 38.8000 -77.1833 117° Southeast 272 313 5,100 -1,020 Descending Potomac TRACON
06:49PM 38.7500 -77.1167 134° Southeast 264 304 4,000 -600 Descending Potomac TRACON
06:50PM 38.6833 -77.1000 169° South 213 245 4,000 -540 Level Potomac TRACON
06:51PM 38.6833 -77.0500 90° East 174 200 3,000 -660 Descending Potomac TRACON
06:52PM 38.7333 -77.0333 15° North 180 207 2,800 -900 Descending Potomac TRACON
06:53PM 38.7667 -77.0333 360° North 155 178 1,400 -1,080 Descending Potomac TRACON
06:54PM 38.8000 -77.0333 360° North 137 158 700 -720 Descending Potomac TRACON